createdAt,value
2023-01-26T00:00:35.000Z,6
2023-01-26T00:04:03.000Z,6.8
2023-01-26T00:07:31.000Z,6.2
2023-01-26T00:10:20.000Z,6.5
2023-01-26T00:13:48.000Z,5.9
2023-01-26T00:17:16.000Z,7
2023-01-26T00:20:44.000Z,6.4
2023-01-26T00:24:12.000Z,6.8
2023-01-26T00:27:40.000Z,5.6
2023-01-26T00:31:08.000Z,5.3
2023-01-26T00:34:36.000Z,5.8
2023-01-26T00:38:04.000Z,5.6
2023-01-26T00:41:32.000Z,5.4
2023-01-26T00:45:00.000Z,5.7
2023-01-26T00:47:50.000Z,5.3
2023-01-26T00:51:18.000Z,6.2
2023-01-26T00:54:45.000Z,4.3
2023-01-26T00:58:13.000Z,5.9
2023-01-26T01:01:41.000Z,5.8
2023-01-26T01:05:09.000Z,6.2
2023-01-26T01:08:37.000Z,6.1
2023-01-26T01:12:06.000Z,7
2023-01-26T01:15:34.000Z,7
2023-01-26T01:19:02.000Z,6.2
2023-01-26T01:22:30.000Z,6.9
2023-01-26T01:25:19.000Z,7.4
2023-01-26T01:28:47.000Z,7.1
2023-01-26T01:32:15.000Z,7.1
2023-01-26T01:35:43.000Z,7.8
2023-01-26T01:39:11.000Z,7.4
2023-01-26T01:42:38.000Z,7.8
2023-01-26T01:46:06.000Z,7.8
2023-01-26T01:49:34.000Z,7.7
2023-01-26T01:53:02.000Z,7.8
2023-01-26T01:56:30.000Z,8.3
2023-01-26T01:59:58.000Z,8.1
2023-01-26T02:02:47.000Z,8.8
2023-01-26T02:06:15.000Z,8.1
2023-01-26T02:09:43.000Z,8.3
2023-01-26T02:13:11.000Z,8.5
2023-01-26T02:16:39.000Z,8.4
2023-01-26T02:20:07.000Z,8.4
2023-01-26T02:23:35.000Z,8.2
2023-01-26T02:27:02.000Z,8.4
2023-01-26T02:30:30.000Z,8.4
2023-01-26T02:33:58.000Z,7.2
2023-01-26T02:37:26.000Z,7.9
2023-01-26T02:40:16.000Z,7.6
2023-01-26T02:43:44.000Z,7.7
2023-01-26T02:47:12.000Z,7.7
2023-01-26T02:50:39.000Z,7.9
2023-01-26T02:54:07.000Z,7.7
2023-01-26T02:57:35.000Z,7.7
2023-01-26T03:01:03.000Z,8
2023-01-26T03:04:31.000Z,8.3
2023-01-26T03:07:59.000Z,7.8
2023-01-26T03:11:27.000Z,7.7
2023-01-26T03:14:55.000Z,7.4
2023-01-26T03:17:44.000Z,7.4
2023-01-26T03:21:12.000Z,7
2023-01-26T03:24:40.000Z,8
2023-01-26T03:28:08.000Z,7
2023-01-26T03:31:36.000Z,7.8
2023-01-26T03:35:04.000Z,7.1
2023-01-26T03:38:32.000Z,7.4
2023-01-26T03:41:59.000Z,6.3
2023-01-26T03:45:27.000Z,6.5
2023-01-26T03:48:55.000Z,7.4
2023-01-26T03:52:23.000Z,6.8
2023-01-26T03:55:12.000Z,7
2023-01-26T03:58:40.000Z,7
2023-01-26T04:02:08.000Z,6
2023-01-26T04:05:36.000Z,6.2
2023-01-26T04:09:04.000Z,5.6
2023-01-26T04:12:32.000Z,6.2
2023-01-26T04:16:00.000Z,5.7
2023-01-26T04:19:28.000Z,6.3
2023-01-26T04:22:56.000Z,6.1
2023-01-26T04:26:24.000Z,5.5
2023-01-26T04:29:52.000Z,6
2023-01-26T04:32:41.000Z,5.9
2023-01-26T04:36:09.000Z,6.4
2023-01-26T04:39:37.000Z,6.6
2023-01-26T04:43:05.000Z,5.9
2023-01-26T04:46:33.000Z,6.2
2023-01-26T04:50:00.000Z,7.4
2023-01-26T04:53:28.000Z,6.7
2023-01-26T04:56:56.000Z,7.2
2023-01-26T05:00:24.000Z,8.3
2023-01-26T05:03:52.000Z,7
2023-01-26T05:07:21.000Z,7.6
2023-01-26T05:10:10.000Z,8.1
2023-01-26T05:13:38.000Z,9.9
2023-01-26T05:17:06.000Z,7.5
2023-01-26T05:20:34.000Z,8.5
2023-01-26T05:24:02.000Z,8.5
2023-01-26T05:27:30.000Z,8.6
2023-01-26T05:30:58.000Z,8.9
2023-01-26T05:34:26.000Z,8.4
2023-01-26T05:37:54.000Z,8.3
2023-01-26T05:41:22.000Z,7.8
2023-01-26T05:44:50.000Z,7.4
2023-01-26T05:47:39.000Z,7.5
2023-01-26T05:51:07.000Z,8.4
2023-01-26T05:54:35.000Z,6.4
2023-01-26T05:58:03.000Z,7.7
2023-01-26T06:01:31.000Z,7.2
2023-01-26T06:04:59.000Z,8.6
2023-01-26T06:08:26.000Z,6.8
2023-01-26T06:11:54.000Z,8
2023-01-26T06:15:22.000Z,6.9
2023-01-26T06:18:50.000Z,7.4
2023-01-26T06:22:18.000Z,7.6
2023-01-26T06:25:07.000Z,7.2
2023-01-26T06:28:35.000Z,8.1
2023-01-26T06:32:03.000Z,8.1
2023-01-26T06:35:31.000Z,8.1
2023-01-26T06:38:59.000Z,8.7
2023-01-26T06:42:27.000Z,9
2023-01-26T06:45:55.000Z,8.6
2023-01-26T06:49:23.000Z,8.3
2023-01-26T06:52:51.000Z,10.7
2023-01-26T06:56:19.000Z,8.8
2023-01-26T06:59:47.000Z,10.1
2023-01-26T07:02:36.000Z,11.7
2023-01-26T07:06:04.000Z,9.6
2023-01-26T07:09:31.000Z,10.3
2023-01-26T07:12:59.000Z,9.3
2023-01-26T07:16:27.000Z,9.7
2023-01-26T07:19:55.000Z,11.3
2023-01-26T07:23:23.000Z,10.2
2023-01-26T07:26:51.000Z,9.9
2023-01-26T07:30:19.000Z,9.8
2023-01-26T07:33:47.000Z,10.1
2023-01-26T07:37:15.000Z,10.8
2023-01-26T07:40:04.000Z,9.9
2023-01-26T07:43:33.000Z,9.7
2023-01-26T07:47:01.000Z,9.5
2023-01-26T07:50:29.000Z,11
2023-01-26T07:54:00.000Z,11.4
2023-01-26T07:57:28.000Z,11.4
2023-01-26T08:00:59.000Z,10.8
2023-01-26T08:04:28.000Z,9.6
2023-01-26T08:07:56.000Z,10
2023-01-26T08:11:24.000Z,9.6
2023-01-26T08:14:52.000Z,10.6
2023-01-26T08:17:41.000Z,11.5
2023-01-26T08:21:09.000Z,9.4
2023-01-26T08:24:37.000Z,9.8
2023-01-26T08:28:05.000Z,11.3
2023-01-26T08:31:33.000Z,9.4
2023-01-26T08:35:01.000Z,10
2023-01-26T08:38:29.000Z,10.7
2023-01-26T08:41:56.000Z,10.5
2023-01-26T08:45:24.000Z,12.1
2023-01-26T08:48:53.000Z,11.3
2023-01-26T08:52:21.000Z,11.5
2023-01-26T08:55:10.000Z,11.8
2023-01-26T08:58:38.000Z,11.3
2023-01-26T09:02:06.000Z,11.8
2023-01-26T09:05:34.000Z,11.1
2023-01-26T09:09:02.000Z,11.2
2023-01-26T09:12:30.000Z,10.7
2023-01-26T09:16:01.000Z,13.3
2023-01-26T09:19:29.000Z,12.4
2023-01-26T09:22:56.000Z,12.2
2023-01-26T09:26:24.000Z,12.9
2023-01-26T09:29:52.000Z,13.4
2023-01-26T09:32:42.000Z,13.7
2023-01-26T09:36:10.000Z,13.4
2023-01-26T09:39:38.000Z,13.1
2023-01-26T09:43:06.000Z,13.2
2023-01-26T09:46:33.000Z,12.5
2023-01-26T09:50:01.000Z,12.9
2023-01-26T09:53:30.000Z,12.2
2023-01-26T09:56:57.000Z,14.2
2023-01-26T10:00:25.000Z,13.8
2023-01-26T10:03:53.000Z,12.9
2023-01-26T10:07:21.000Z,13.1
2023-01-26T10:10:10.000Z,12.4
2023-01-26T10:13:38.000Z,13.2
2023-01-26T10:17:07.000Z,13.8
2023-01-26T10:20:35.000Z,10.8
2023-01-26T10:24:03.000Z,11.8
2023-01-26T10:27:31.000Z,14.7
2023-01-26T10:34:59.000Z,13.4
2023-01-26T10:38:27.000Z,12.9
2023-01-26T10:41:55.000Z,12.5
2023-01-26T10:45:23.000Z,12.5
2023-01-26T10:48:12.000Z,10.2
2023-01-26T10:51:40.000Z,11.7
2023-01-26T10:55:08.000Z,9.7
2023-01-26T10:58:36.000Z,11.4
2023-01-26T11:02:04.000Z,11.6
2023-01-26T11:05:32.000Z,11.6
2023-01-26T11:09:00.000Z,10.5
2023-01-26T11:12:28.000Z,12.4
2023-01-26T11:15:56.000Z,11.2
2023-01-26T11:19:24.000Z,11.6
2023-01-26T11:22:52.000Z,13.9
2023-01-26T11:25:41.000Z,10.5
2023-01-26T11:29:09.000Z,12.1
2023-01-26T11:32:37.000Z,11.7
2023-01-26T11:36:05.000Z,11.9
2023-01-26T11:39:33.000Z,13
2023-01-26T11:43:01.000Z,13.4
2023-01-26T11:46:29.000Z,11.9
2023-01-26T11:49:56.000Z,11
2023-01-26T11:53:24.000Z,16.9
2023-01-26T11:56:52.000Z,17.1
2023-01-26T12:00:20.000Z,15
2023-01-26T12:03:12.000Z,15.4
2023-01-26T12:06:40.000Z,11.5
2023-01-26T12:10:08.000Z,11.6
2023-01-26T12:13:36.000Z,11.4
2023-01-26T12:17:04.000Z,11.8
2023-01-26T12:20:58.000Z,10.2
2023-01-26T12:24:26.000Z,10.7
2023-01-26T12:28:25.000Z,11.9
2023-01-26T12:31:53.000Z,10.8
2023-01-26T12:35:21.000Z,10.9
2023-01-26T12:38:49.000Z,10.4
2023-01-26T12:41:38.000Z,10.9
2023-01-26T12:45:06.000Z,11.5
2023-01-26T12:48:36.000Z,11.4
2023-01-26T12:52:04.000Z,11
2023-01-26T12:55:34.000Z,10.4
2023-01-26T12:59:02.000Z,12.1
2023-01-26T13:02:31.000Z,8.5
2023-01-26T13:05:59.000Z,12.3
2023-01-26T13:09:27.000Z,13.5
2023-01-26T13:12:55.000Z,12.3
2023-01-26T13:16:23.000Z,13.2
2023-01-26T13:19:12.000Z,13.7
2023-01-26T13:22:40.000Z,14.4
2023-01-26T13:26:08.000Z,12.8
2023-01-26T13:29:36.000Z,12.4
2023-01-26T13:33:04.000Z,12.6
2023-01-26T13:36:32.000Z,12.8
2023-01-26T13:40:00.000Z,14.7
2023-01-26T13:43:28.000Z,16.5
2023-01-26T13:46:56.000Z,17
2023-01-26T13:50:24.000Z,17.1
2023-01-26T13:53:52.000Z,18.4
2023-01-26T13:56:42.000Z,17.5
2023-01-26T14:00:10.000Z,18.8
2023-01-26T14:03:37.000Z,17.8
2023-01-26T14:07:06.000Z,17.9
2023-01-26T14:10:34.000Z,18.6
2023-01-26T14:14:02.000Z,16.1
2023-01-26T14:17:29.000Z,16.5
2023-01-26T14:20:57.000Z,16.1
2023-01-26T14:24:25.000Z,17.7
2023-01-26T14:27:53.000Z,15.6
2023-01-26T14:31:21.000Z,16.7
2023-01-26T14:34:10.000Z,19.3
2023-01-26T14:37:38.000Z,18.1
2023-01-26T14:41:06.000Z,18.9
2023-01-26T14:44:34.000Z,19.6
2023-01-26T14:48:02.000Z,18
2023-01-26T14:51:30.000Z,19.1
2023-01-26T14:54:58.000Z,18.7
2023-01-26T14:58:26.000Z,19.6
2023-01-26T15:01:53.000Z,18.8
2023-01-26T15:05:21.000Z,17.9
2023-01-26T15:08:49.000Z,17.4
2023-01-26T15:11:39.000Z,16.3
2023-01-26T15:15:06.000Z,18.4
2023-01-26T15:18:34.000Z,18
2023-01-26T15:22:02.000Z,17
2023-01-26T15:25:30.000Z,16.4
2023-01-26T15:28:58.000Z,18.2
2023-01-26T15:32:26.000Z,14.9
2023-01-26T15:35:54.000Z,16.7
2023-01-26T15:39:22.000Z,16.4
2023-01-26T15:42:50.000Z,15.8
2023-01-26T15:46:18.000Z,15.2
2023-01-26T15:49:07.000Z,14.9
2023-01-26T15:52:35.000Z,15.1
2023-01-26T15:56:03.000Z,15.2
2023-01-26T15:59:30.000Z,15.6
2023-01-26T16:02:58.000Z,16.6
2023-01-26T16:06:26.000Z,16.2
2023-01-26T16:09:54.000Z,17.1
2023-01-26T16:13:22.000Z,15.9
2023-01-26T16:18:58.000Z,21.9
2023-01-26T16:22:26.000Z,19.1
2023-01-26T16:25:54.000Z,17.1
2023-01-26T16:28:38.000Z,17.4
2023-01-26T16:32:06.000Z,16.2
2023-01-26T16:35:33.000Z,18.3
2023-01-26T16:39:01.000Z,17.2
2023-01-26T16:42:29.000Z,17.4
2023-01-26T16:45:57.000Z,18.8
2023-01-26T16:49:25.000Z,18.1
2023-01-26T16:52:53.000Z,19.7
2023-01-26T16:56:21.000Z,17.8
2023-01-26T16:59:49.000Z,18.1
2023-01-26T17:03:17.000Z,17.6
2023-01-26T17:06:06.000Z,19.2
2023-01-26T17:09:34.000Z,17.8
2023-01-26T17:13:02.000Z,19.4
2023-01-26T17:16:30.000Z,19
2023-01-26T17:19:58.000Z,16.4
2023-01-26T17:23:39.000Z,17.5
2023-01-26T17:27:11.000Z,20.6
2023-01-26T17:30:39.000Z,18.5
2023-01-26T17:34:07.000Z,19.6
2023-01-26T17:37:35.000Z,18.8
2023-01-26T17:41:03.000Z,18.4
2023-01-26T17:43:52.000Z,16.4
2023-01-26T17:47:20.000Z,18.5
2023-01-26T17:50:48.000Z,17.2
2023-01-26T17:54:16.000Z,18.6
2023-01-26T17:57:44.000Z,17.1
2023-01-26T18:01:12.000Z,16.7
2023-01-26T18:04:40.000Z,17.8
2023-01-26T18:08:08.000Z,17.3
2023-01-26T18:11:36.000Z,16.4
2023-01-26T18:15:04.000Z,15.9
2023-01-26T18:18:33.000Z,16.4
2023-01-26T18:21:22.000Z,17.8
2023-01-26T18:24:50.000Z,16.6
2023-01-26T18:28:18.000Z,17
2023-01-26T18:31:46.000Z,17.1
2023-01-26T18:35:14.000Z,15
2023-01-26T18:38:42.000Z,15.9
2023-01-26T18:42:10.000Z,15.1
2023-01-26T18:45:37.000Z,16.9
2023-01-26T18:49:06.000Z,15.3
2023-01-26T18:52:34.000Z,16.2
2023-01-26T18:56:02.000Z,16.4
2023-01-26T18:58:51.000Z,15.9
2023-01-26T19:02:19.000Z,14.8
2023-01-26T19:05:47.000Z,14
2023-01-26T19:09:15.000Z,12.7
2023-01-26T19:12:42.000Z,12.2
2023-01-26T19:16:10.000Z,13.3
2023-01-26T19:19:38.000Z,12.3
2023-01-26T19:23:06.000Z,12.3
2023-01-26T19:26:34.000Z,11.9
2023-01-26T19:30:02.000Z,11.1
2023-01-26T19:33:30.000Z,11.7
2023-01-26T19:36:19.000Z,12.3
2023-01-26T19:39:47.000Z,12.2
2023-01-26T19:43:15.000Z,12.9
2023-01-26T19:46:43.000Z,11.1
2023-01-26T19:50:11.000Z,11.8
2023-01-26T19:53:39.000Z,12.4
2023-01-26T19:57:08.000Z,11.1
2023-01-26T20:00:36.000Z,12.2
2023-01-26T20:04:04.000Z,11.7
2023-01-26T20:07:31.000Z,11.9
2023-01-26T20:10:59.000Z,11.8
2023-01-26T20:13:49.000Z,11.8
2023-01-26T20:17:17.000Z,11.2
2023-01-26T20:20:45.000Z,11.8
2023-01-26T20:24:12.000Z,11.9
2023-01-26T20:27:40.000Z,11.4
2023-01-26T20:31:08.000Z,12.1
2023-01-26T20:34:36.000Z,12.2
2023-01-26T20:38:04.000Z,11.6
2023-01-26T20:41:32.000Z,11.8
2023-01-26T20:45:00.000Z,11.7
2023-01-26T20:48:28.000Z,11.9
2023-01-26T20:51:17.000Z,12
2023-01-26T20:54:45.000Z,11.6
2023-01-26T20:58:13.000Z,11.2
2023-01-26T21:01:40.000Z,11.9
2023-01-26T21:05:08.000Z,11.4
2023-01-26T21:08:36.000Z,10.3
2023-01-26T21:12:04.000Z,11.9
2023-01-26T21:15:32.000Z,10.6
2023-01-26T21:19:00.000Z,10.1
2023-01-26T21:22:28.000Z,10.6
2023-01-26T21:25:56.000Z,11.1
2023-01-26T21:28:45.000Z,11
2023-01-26T21:32:13.000Z,11.4
2023-01-26T21:35:41.000Z,10.1
2023-01-26T21:39:09.000Z,10.7
2023-01-26T21:42:37.000Z,9.8
2023-01-26T21:46:05.000Z,9.1
2023-01-26T21:49:33.000Z,9.5
2023-01-26T21:53:01.000Z,9.9
2023-01-26T21:56:29.000Z,9.5
2023-01-26T21:59:57.000Z,9.2
2023-01-26T22:03:25.000Z,9.6
2023-01-26T22:06:14.000Z,9.4
2023-01-26T22:09:42.000Z,10
2023-01-26T22:13:10.000Z,10
2023-01-26T22:16:38.000Z,10.1
2023-01-26T22:20:06.000Z,8.5
2023-01-26T22:23:34.000Z,8.9
2023-01-26T22:27:02.000Z,10.3
2023-01-26T22:30:30.000Z,10.4
2023-01-26T22:33:58.000Z,9.2
2023-01-26T22:37:26.000Z,9.6
2023-01-26T22:40:54.000Z,9.9
2023-01-26T22:43:43.000Z,10.2
2023-01-26T22:47:11.000Z,10.9
2023-01-26T22:50:39.000Z,9.9
2023-01-26T22:54:07.000Z,10
2023-01-26T22:57:35.000Z,9.1
2023-01-26T23:01:03.000Z,10.7
2023-01-26T23:04:31.000Z,9.6
2023-01-26T23:07:59.000Z,10.1
2023-01-26T23:11:27.000Z,9.8
2023-01-26T23:14:55.000Z,9.1
2023-01-26T23:18:23.000Z,10.2
2023-01-26T23:23:18.000Z,8.7
2023-01-26T23:26:46.000Z,9.8
2023-01-26T23:30:14.000Z,8.9
2023-01-26T23:33:42.000Z,8.7
2023-01-26T23:37:10.000Z,9.2
2023-01-26T23:40:38.000Z,9.9
2023-01-26T23:44:06.000Z,9.3
2023-01-26T23:47:34.000Z,9.8
2023-01-26T23:51:02.000Z,10.8
2023-01-26T23:54:30.000Z,9.8
2023-01-26T23:57:58.000Z,8.6
